Latest Coastal Weather Observations for Ceduna

IDS60701

Issued at 4:21 pm CDT Saturday 20 December 2014 (issued every 10 minutes, with the page automatically refreshed every 10 minutes)

About coastal observations | Map of coastal stations | Coastal observations for SA | Marine services | Other Formats
Station Details ID: 018012 Name: CEDUNA AMO Lat: -32.13 Lon: 133.70 Height: 15.3 m
Data from the previous 72 hours. | See also: Recent months at Ceduna
Date/Time
CDT
Temp

°C
Wind Pressure Rain
since 9am
mm
Weather Cloud Vis
km
Sea
Height
m
Swell
Dir
 
Speed
knots
Gust
knots
hPa Trend Height
m
Period
s
Dir
20/04:00pm 30.1 S 15 18 1010.9 - 0.0 - - 10 - - - -
20/03:30pm 29.5 S 15 18 1011.4 - 0.0 - - 10 - - - -
20/03:00pm 29.0 S 14 17 1011.9 F 0.0 - Mostly clear 10 - - - -
20/02:30pm 30.4 S 14 17 1012.4 - 0.0 - - 10 - - - -
20/02:00pm 32.2 S 12 15 1012.7 - 0.0 - - 10 - - - -
20/01:30pm 32.3 S 11 15 1013.4 - 0.0 - - 10 - - - -
20/01:00pm 30.3 SSW 12 14 1014.0 - 0.0 - - 10 - - - -
20/12:30pm 28.8 SSW 12 14 1014.4 - 0.0 - - 10 - - - -
20/12:00pm 28.2 SW 10 12 1014.6 F 0.0 - - 10 - - - -
20/11:30am 31.0 N 7 11 1014.8 - 0.0 - - 10 - - - -
20/11:00am 30.2 NNE 7 12 1015.1 - 0.0 - - 10 - - - -
20/10:30am 28.8 NE 9 13 1015.4 - 0.0 - - 10 - - - -
20/10:00am 26.8 ENE 10 15 1015.7 - 0.0 - - 10 - - - -
20/09:30am 24.9 ENE 11 14 1015.7 - 0.0 - - 10 - - - -
20/09:00am 21.6 E 9 12 1016.2 F 0.0 - - 10 - - - -
20/08:30am 18.7 E 10 13 1016.1 - 0.0 - - 10 - - - -
20/08:00am 16.6 E 9 12 1016.2 - 0.0 - - 10 - - - -
20/07:30am 15.1 E 9 12 1016.2 - 0.0 - - 10 - - - -
20/07:00am 12.7 E 7 10 1016.1 - 0.0 - - 10 - - - -
20/06:30am 10.9 ESE 6 9 1016.3 - 0.0 - - 10 - - - -
20/06:00am 9.3 ESE 4 5 1016.3 F 0.0 - - 10 - - - -
20/05:30am 9.5 ENE 5 6 1016.2 - 0.0 - - 10 - - - -
20/05:00am 10.0 E 6 7 1016.3 - 0.0 - - 10 - - - -
20/04:30am 10.6 E 5 6 1016.6 - 0.0 - - 10 - - - -
20/04:00am 11.9 ESE 3 4 1016.5 - 0.0 - - 10 - - - -
20/03:30am 12.4 ESE 5 6 1016.5 - 0.0 - - 10 - - - -
20/03:00am 13.9 SE 6 8 1016.7 F 0.0 - - 10 - - - -
20/02:30am 13.6 SE 6 8 1017.1 - 0.0 - - 10 - - - -
20/02:00am 13.6 SE 5 6 1017.1 - 0.0 - - 10 - - - -
20/01:30am 14.9 SE 6 7 1017.5 - 0.0 - - 10 - - - -
20/01:00am 16.0 SE 9 13 1017.5 - 0.0 - - 10 - - - -
20/12:30am 16.2 SE 9 11 1017.7 - 0.0 - - 10 - - - -
20/12:00am 16.4 SSE 9 11 1018.1 F 0.0 - - 10 - - - -
 
Date/Time
CDT
Temp

°C
Wind Pressure Rain
since 9am
mm
Weather Cloud Vis
km
Sea
Height
m
Swell
Dir
 
Speed
knots
Gust
knots
hPa Trend Height
m
Period
s
Dir
19/11:30pm 16.8 SSE 10 13 1018.4 - 0.0 - - 10 - - - -
19/11:00pm 16.9 SSE 10 13 1018.5 - 0.0 - - 10 - - - -
19/10:30pm 17.3 SSE 11 14 1018.8 - 0.0 - - 10 - - - -
19/10:00pm 17.5 SSE 12 15 1018.9 - 0.0 - - 10 - - - -
19/09:30pm 17.7 SSE 13 18 1018.7 - 0.0 - - 10 - - - -
19/09:00pm 17.9 S 14 19 1018.7 F 0.0 - - 10 - - - -
19/08:30pm 18.3 S 15 19 1018.7 - 0.0 - - 10 - - - -
19/08:00pm 19.0 SSE 17 20 1018.7 - 0.0 - - 10 - - - -
19/07:30pm 19.7 S 16 21 1018.7 - 0.0 - - 10 - - - -
19/07:00pm 20.0 S 18 22 1018.5 - 0.0 - - 10 - - - -
19/06:30pm 20.2 S 17 21 1018.5 - 0.0 - - 10 - - - -
19/06:00pm 20.8 S 17 21 1018.6 F 0.0 - - 10 - - - -
19/05:30pm 21.0 S 18 23 1018.5 - 0.0 - - 10 - - - -
19/05:00pm 21.3 S 17 23 1018.8 - 0.0 - - 10 - - - -
19/04:30pm 21.0 S 18 22 1018.9 - 0.0 - - 10 - - - -
19/04:00pm 21.2 S 18 23 1019.2 - 0.0 - - 10 - - - -
19/03:30pm 21.9 S 17 23 1019.4 - 0.0 - - 10 - - - -
19/03:00pm 21.5 S 17 20 1019.6 S 0.0 - - 10 - - - -
19/02:30pm 22.0 SSW 17 21 1019.8 - 0.0 - - 10 - - - -
19/02:00pm 22.2 SSW 18 22 1020.1 - 0.0 - - 10 - - - -
19/01:30pm 21.8 SSW 17 21 1020.5 - 0.0 - - 10 - - - -
19/01:00pm 22.2 S 14 18 1020.6 - 0.0 - - 10 - - - -
19/12:30pm 21.8 S 14 20 1020.8 - 0.0 - - 10 - - - -
19/12:00pm 22.1 S 12 15 1020.9 R 0.0 - - 10 - - - -
19/11:30am 21.4 S 11 15 1020.8 - 0.0 - - 10 - - - -
19/11:00am 21.0 SSE 9 13 1020.8 - 0.0 - - 10 - - - -
19/10:30am 20.3 SSE 9 13 1020.8 - 0.0 - - 10 - - - -
19/10:00am 20.0 ESE 8 13 1021.2 - 0.0 - - 10 - - - -
19/09:30am 19.3 SE 8 13 1021.0 - 0.0 - - 10 - - - -
19/09:00am 18.4 SE 10 15 1020.8 R 0.0 - - 10 - - - -
19/08:30am 17.7 ESE 10 14 1020.7 - 0.0 - - 10 - - - -
19/08:00am 16.3 ESE 8 10 1020.5 - 0.0 - - 10 - - - -
19/07:30am 13.9 ESE 5 7 1020.2 - 0.0 - - 10 - - - -
19/07:00am 10.5 ESE 6 7 1019.6 - 0.0 - - 10 - - - -
19/06:30am 10.3 E 7 8 1019.3 - 0.0 - - 10 - - - -
19/06:00am 11.2 ESE 7 8 1019.2 R 0.0 - - 10 - - - -
19/05:30am 11.7 ESE 8 9 1019.0 - 0.0 - - 10 - - - -
19/05:00am 12.7 ESE 8 9 1018.7 - 0.0 - - 10 - - - -
19/04:30am 13.3 ESE 8 9 1018.6 - 0.0 - Partly cloudy 10 - - - -
19/04:00am 13.2 ESE 6 7 1018.5 - 0.0 - Partly cloudy 10 - - - -
19/03:30am 14.0 ESE 8 9 1018.6 - 0.0 - Partly cloudy 10 - - - -
19/03:00am 15.1 E 7 8 1018.6 R 0.0 - Cloudy 10 - - - -
19/02:30am 13.3 E 6 8 1018.6 - 0.0 - Partly cloudy 10 - - - -
19/02:00am 13.2 ESE 7 7 1018.8 - 0.0 - Partly cloudy 10 - - - -
19/01:30am 13.9 SE 6 7 1018.9 - 0.0 - - 10 - - - -
19/01:00am 14.6 SE 5 6 1019.0 - 0.0 - - 10 - - - -
19/12:30am 15.5 SSE 6 7 1019.0 - 0.0 - - 10 - - - -
19/12:00am 16.6 SE 7 8 1018.9 R 0.0 - - 10 - - - -
 
Date/Time
CDT
Temp

°C
Wind Pressure Rain
since 9am
mm
Weather Cloud Vis
km
Sea
Height
m
Swell
Dir
 
Speed
knots
Gust
knots
hPa Trend Height
m
Period
s
Dir
18/11:30pm 17.5 SSE 10 15 1018.9 - 0.0 - Partly cloudy 10 - - - -
18/11:00pm 17.5 SE 9 12 1018.8 - 0.0 - Partly cloudy 10 - - - -
18/10:30pm 18.1 SSE 9 13 1018.6 - 0.0 - Partly cloudy 10 - - - -
18/10:00pm 18.1 SSE 8 11 1018.5 - 0.0 - Partly cloudy 10 - - - -
18/09:30pm 18.1 S 12 15 1018.2 - 0.0 - Partly cloudy 10 - - - -
18/09:00pm 18.3 S 11 13 1018.0 R 0.0 - Mostly clear 10 - - - -
18/08:30pm 18.6 S 10 13 1017.9 - 0.0 - Partly cloudy 10 - - - -
18/08:00pm 19.3 S 13 17 1017.6 - 0.0 - - 10 - - - -
18/07:30pm 20.1 S 13 16 1017.3 - 0.0 - Partly cloudy 10 - - - -
18/07:00pm 20.0 S 13 17 1016.8 - 0.0 - Partly cloudy 10 - - - -
18/06:30pm 20.9 SSW 15 18 1016.5 - 0.0 - Partly cloudy 10 - - - -
18/06:00pm 20.9 SSW 15 21 1016.3 R 0.0 - Mostly clear 10 - - - -
18/05:30pm 21.8 SSW 14 19 1016.1 - 0.0 - - 10 - - - -
18/05:00pm 21.9 SSW 15 21 1015.9 - 0.0 - - 10 - - - -
18/04:30pm 21.7 SSW 16 20 1015.9 - 0.0 - - 10 - - - -
18/04:00pm 22.0 SSW 16 21 1015.9 - 0.0 - - 10 - - - -
18/03:30pm 21.8 SSW 16 21 1015.7 - 0.0 - - 10 - - - -
18/03:00pm 22.0 SSW 17 20 1015.6 R 0.0 Fine Mostly clear 30 - - - -
18/02:30pm 21.6 SSW 16 21 1015.4 - 0.0 - Mostly clear 10 - - - -
18/02:00pm 21.9 SSW 16 21 1015.6 - 0.0 - Mostly clear 10 - - - -
18/01:30pm 22.5 SSW 15 19 1015.5 - 0.0 - Mostly clear 10 - - - -
18/01:00pm 22.2 SSW 15 19 1015.6 - 0.0 - Mostly clear 10 - - - -
18/12:30pm 22.2 SSW 13 17 1015.6 - 0.0 - - 10 - - - -
18/12:00pm 21.5 SSW 13 16 1015.5 R 0.0 Fine Mostly clear 30 - - - -
18/11:30am 21.7 SSW 13 17 1015.2 - 0.0 - Mostly clear 10 - - - -
18/11:00am 20.7 SSW 13 16 1015.1 - 0.0 - Mostly clear 10 - - - -
18/10:30am 20.6 SSW 13 18 1014.9 - 0.0 - Mostly clear 10 - - - -
18/10:00am 20.8 SSW 13 17 1014.7 - 0.0 - Mostly clear 10 - - - -
18/09:30am 20.8 SSW 11 15 1014.4 - 0.0 - - 10 - - - -
18/09:00am 20.3 SSW 10 13 1014.2 R 0.0 Fine Mostly clear 30 - - - -
18/08:30am 19.3 S 11 14 1013.9 - 0.0 - - 10 - - - -
18/08:00am 17.8 SE 5 6 1013.5 - 0.0 - - 10 - - - -
18/07:30am 15.0 ESE 4 6 1012.8 - 0.0 - - 10 - - - -
18/07:00am 11.3 ESE 5 6 1012.7 - 0.0 - - 10 - - - -
18/06:30am 9.7 E 5 7 1012.4 - 0.0 - Partly cloudy 10 - - - -
18/06:00am 10.0 ESE 4 5 1012.1 R 0.0 Fine Mostly clear 30 - - - -
18/05:30am 10.2 E 1 3 1011.7 - 0.0 - - 10 - - - -
18/05:00am 10.2 E 3 4 1011.3 - 0.0 - - 10 - - - -
18/04:30am 11.0 CALM 0 0 1010.9 - 0.0 - Partly cloudy 10 - - - -
18/04:00am 11.7 CALM 0 0 1010.7 - 0.0 - Partly cloudy 10 - - - -
18/03:30am 11.9 E 5 6 1010.4 - 0.0 - Partly cloudy 10 - - - -
18/03:00am 12.2 E 4 5 1010.3 R 0.0 - Partly cloudy 10 - - - -
18/02:30am 12.9 E 7 8 1010.2 - 0.0 - Partly cloudy 10 - - - -
18/02:00am 12.0 ESE 6 7 1010.0 - 0.0 - Partly cloudy 10 - - - -
18/01:30am 13.2 SE 7 8 1010.0 - 0.0 - - 10 - - - -
18/01:00am 12.5 SE 7 9 1010.2 - 0.0 - - 10 - - - -
18/12:30am 13.2 SE 6 7 1010.1 - 0.0 - - 10 - - - -
18/12:00am 14.3 SE 7 7 1009.9 R 0.0 - - 10 - - - -
 
Date/Time
CDT
Temp

°C
Wind Pressure Rain
since 9am
mm
Weather Cloud Vis
km
Sea
Height
m
Swell
Dir
 
Speed
knots
Gust
knots
hPa Trend Height
m
Period
s
Dir
17/11:30pm 15.2 SSE 7 8 1009.8 - 0.0 - - 10 - - - -
17/11:00pm 15.5 SE 7 8 1010.0 - 0.0 - - 10 - - - -
17/10:30pm 16.0 SSE 6 7 1009.9 - 0.0 - - 10 - - - -
17/10:00pm 16.9 SSE 7 10 1009.8 - 0.0 - - 10 - - - -
17/09:30pm 17.5 SSE 8 11 1009.6 - 0.0 - - 10 - - - -
17/09:00pm 17.8 SSE 9 12 1008.8 F 0.0 - - 10 - - - -
17/08:30pm 18.2 SSE 11 14 1008.4 - 0.0 - - 10 - - - -
17/08:00pm 18.9 SSE 13 18 1008.7 - 0.0 - - 10 - - - -
17/07:30pm 19.2 S 16 21 1008.5 - 0.0 - - 10 - - - -
17/07:00pm 20.0 S 17 22 1008.3 - 0.0 - - 10 - - - -
17/06:30pm 20.6 S 17 22 1008.3 - 0.0 - - 10 - - - -
17/06:00pm 20.8 SSW 19 24 1008.3 R 0.0 - - 10 - - - -
17/05:30pm 21.3 SSW 19 24 1008.3 - 0.0 - - 10 - - - -
17/05:00pm 22.2 SSW 19 22 1008.2 - 0.0 - - 10 - - - -
17/04:30pm 22.6 SSW 17 20 1007.9 - 0.0 - - 10 - - - -

Other Formats:

Comma delimited format used in spreadsheet applications
http://www.bom.gov.au/fwo/IDS60701/IDS60701.94653.axf

JavaScript Object Notation format (JSON) in row-major order
http://www.bom.gov.au/fwo/IDS60701/IDS60701.94653.json